EGGDEGSS

Guest
Details From EGGD - Bristol Lulsgate
To EGSS - London Stansted
Flight Number -
Tags Routegen
Created
Modified
Stats Distance 114 nm / 211 km
Max Altitude 0 ft / 0 m
Waypoints 2
Social Downloads 0
Likes 0
Share VATSIM

Download

Looking for another format? Having issues loading an existing format? Contact us
Advertisement - Login to hide

Notes

None

Route

EGGD EGSS

ID Type Via Altitude (ft/m) Position (lat/lon) Dist (leg/tot) Name
O EGGD APT - 0 / 0 51.38211 / -2.73350 - / 0 nm
O EGSS APT - 0 / 0 51.87508 / 0.21993 114 / 114 nm

Altitude Profile

Advertisement - Login to hide

EGGD

Details ICAO EGGD (BRS)
Name Bristol International
Region United Kingdom
Timezone Europe/London (UTC+1.0)
Stats Elevation 622 ft / 190 m (AMSL)
Location 51.382700° -2.719070°
Runways 1
Magnetic Variation 1.221° W

METAR

EGGD 230920Z AUTO 25011KT 9999 NCD 10/09 Q1033

Decode

TAF

TAF EGGD 230457Z 2306/2406 28010KT 9999 FEW030 TEMPO 2306/2318 27015G25KT PROB30 TEMPO 2306/2310 BKN009 PROB30 TEMPO 2403/2406 BKN006

Decode

Departure Runways

ID Width Length Bearing (true/mag) Surface Threshold Overrun Markings Lighting
09 148 ft / 45 m 6,605 ft / 2,013 m 86.42° / 87.64° ASPHALT 0 ft / 0 m 0 ft / 0 m UK-PREC-APP CENTERLINE EDGE THRESHOLD CALVERT TDZ REIL-OMNI
27 148 ft / 45 m 6,605 ft / 2,013 m 266.44° / 267.67° ASPHALT 427 ft / 130 m 0 ft / 0 m UK-PREC-APP CENTERLINE EDGE THRESHOLD ODALS TDZ REIL-OMNI

EGSS

Details ICAO EGSS (STN)
Name London Stansted
Region United Kingdom
Timezone Europe/London (UTC+1.0)
Stats Elevation 348 ft / 106 m (AMSL)
Location 51.885100° 0.234986°
Runways 1
Magnetic Variation 0.236° W

METAR

EGSS 230920Z AUTO 28009KT 9999 NCD 10/06 Q1029

Decode

TAF

TAF EGSS 230457Z 2306/2412 28010KT 9999 FEW030 TEMPO 2306/2324 29015G25KT PROB30 TEMPO 2306/2310 BKN010 TEMPO 2323/2410 BKN008

Decode

Destination Runways

ID Width Length Bearing (true/mag) Surface Threshold Overrun Markings Lighting
04 151 ft / 46 m 9,985 ft / 3,044 m 42.78° / 43.02° ASPHALT 974 ft / 297 m 0 ft / 0 m UK-PREC-APP CENTERLINE EDGE THRESHOLD CALVERT-ILS TDZ REIL-OMNI
22 151 ft / 46 m 9,985 ft / 3,044 m 222.81° / 223.04° ASPHALT 0 ft / 0 m 0 ft / 0 m UK-PREC-APP CENTERLINE EDGE THRESHOLD CALVERT-ILS TDZ REIL-OMNI

Approach Navaids

Runway Type Ident Frequency Range Bearing (true/mag) Slope Elevation
04 LOC-ILS ISED 110.50 MHz 18 nm / 33 km 42.80° / 43.04 ° - 348 ft / 106 m (AMSL)
04 DME ISED 110.50 MHz 18 nm / 33 km - - 348 ft / 106 m (AMSL)
04 GS ISED 110.50 MHz 10 nm / 19 km 42.80° / 43.04 ° 3.00° 348 ft / 106 m (AMSL)
22 GS ISX 110.50 MHz 10 nm / 19 km 222.80° / 223.04 ° 3.00° 348 ft / 106 m (AMSL)
22 DME ISX 110.50 MHz 18 nm / 33 km - - 348 ft / 106 m (AMSL)
22 LOC-ILS ISX 110.50 MHz 18 nm / 33 km 222.80° / 223.04 ° - 348 ft / 106 m (AMSL)

Popular Alternatives